Time;durP1;ratioP1;P1;durP2;ratioP2;P2;SDS_P1;SDS_P2;PMS_P1;PMS_P2;Temp;Humidity;BMP_temperature;BMP_pressure;BME280_temperature;BME280_humidity;BME280_pressure;Samples;Min_cycle;Max_cycle;Signal;HPM_P1;HPM_P2
2021/09/12 00:01:37;;;;;;;3.60;2.30;;;15.90;99.90;;;;;;6037700;23;20023;-77
2021/09/12 00:04:04;;;;;;;3.90;2.75;;;15.90;99.90;;;;;;6036976;23;20825;-76
2021/09/12 00:06:31;;;;;;;3.53;2.33;;;15.90;99.90;;;;;;6037206;23;20512;-77
2021/09/12 00:09:00;;;;;;;4.43;2.88;;;15.90;99.90;;;;;;6037725;23;20027;-76
2021/09/12 00:11:27;;;;;;;5.38;3.17;;;15.90;99.90;;;;;;6036899;23;20043;-76
2021/09/12 00:13:54;;;;;;;5.75;2.92;;;15.90;99.90;;;;;;6037845;23;20030;-77
2021/09/12 00:16:21;;;;;;;6.50;3.50;;;15.90;99.90;;;;;;6036510;23;20023;-77
2021/09/12 00:18:48;;;;;;;6.25;3.80;;;16.00;99.90;;;;;;6037303;23;20019;-77
2021/09/12 00:21:15;;;;;;;5.85;3.65;;;16.00;99.90;;;;;;6036597;23;20320;-77
2021/09/12 00:23:42;;;;;;;6.07;3.65;;;16.00;99.90;;;;;;6037185;23;20340;-77
2021/09/12 00:26:09;;;;;;;7.18;3.42;;;16.00;99.90;;;;;;6036768;23;20076;-76
2021/09/12 00:28:36;;;;;;;5.45;3.40;;;16.10;99.90;;;;;;6037065;23;20325;-77
2021/09/12 00:31:03;;;;;;;6.07;2.85;;;16.10;99.90;;;;;;6037219;23;20022;-77
2021/09/12 00:33:31;;;;;;;4.45;3.05;;;16.10;99.90;;;;;;6036491;23;20030;-77
2021/09/12 00:35:58;;;;;;;10.55;3.17;;;16.10;99.90;;;;;;6037190;23;20027;-77
2021/09/12 00:38:26;;;;;;;3.85;2.60;;;16.20;99.90;;;;;;6036480;23;20027;-77
2021/09/12 00:40:57;;;;;;;5.57;2.67;;;16.20;99.90;;;;;;6037491;23;20024;-76
2021/09/12 00:43:25;;;;;;;6.25;2.75;;;16.30;99.90;;;;;;6036505;23;20034;-77
2021/09/12 00:45:54;;;;;;;3.50;2.67;;;16.30;99.90;;;;;;6037327;23;20019;-77
2021/09/12 00:48:22;;;;;;;5.20;2.45;;;16.30;99.90;;;;;;6036504;23;20027;-77
2021/09/12 00:50:50;;;;;;;6.00;2.40;;;16.30;99.90;;;;;;6037181;23;20019;-77
2021/09/12 00:53:18;;;;;;;4.93;3.03;;;16.40;99.90;;;;;;6036658;23;20039;-77
2021/09/12 00:55:45;;;;;;;5.13;3.10;;;16.40;99.90;;;;;;6037075;23;20023;-77
2021/09/12 00:58:17;;;;;;;5.13;2.92;;;16.40;99.90;;;;;;6036560;23;20019;-76
2021/09/12 01:00:44;;;;;;;3.53;2.70;;;16.40;99.90;;;;;;6036956;23;20023;-77
2021/09/12 01:03:12;;;;;;;5.35;2.70;;;16.40;99.90;;;;;;6035649;23;20042;-76
2021/09/12 01:05:39;;;;;;;2.75;2.20;;;16.40;99.90;;;;;;6035884;23;20079;-77
2021/09/12 01:08:07;;;;;;;4.32;2.40;;;16.40;99.90;;;;;;6034121;23;20020;-76
2021/09/12 01:10:35;;;;;;;3.75;2.30;;;16.50;99.90;;;;;;6037674;23;20031;-76
2021/09/12 01:13:02;;;;;;;4.50;1.77;;;16.50;99.90;;;;;;6037412;23;20083;-76
2021/09/12 01:15:29;;;;;;;3.83;2.08;;;16.50;99.90;;;;;;6036525;23;20035;-77
2021/09/12 01:17:56;;;;;;;3.60;2.05;;;16.50;99.90;;;;;;6037305;23;20145;-76
2021/09/12 01:20:23;;;;;;;5.00;1.80;;;16.50;99.90;;;;;;6036282;23;20463;-77
2021/09/12 01:22:50;;;;;;;6.47;2.25;;;16.50;99.90;;;;;;6037307;23;20030;-76
2021/09/12 01:25:19;;;;;;;5.07;2.25;;;16.50;99.90;;;;;;6036468;23;20019;-76
2021/09/12 01:27:46;;;;;;;4.55;2.10;;;16.50;99.90;;;;;;6036907;23;20023;-77
2021/09/12 01:30:13;;;;;;;4.05;1.90;;;16.50;99.90;;;;;;6036292;23;20381;-77
2021/09/12 01:32:40;;;;;;;5.10;2.05;;;16.50;99.90;;;;;;6037018;23;20031;-77
2021/09/12 01:35:07;;;;;;;3.38;1.77;;;16.50;99.90;;;;;;6036075;23;20026;-77
2021/09/12 01:37:34;;;;;;;3.13;1.80;;;16.50;99.90;;;;;;6037119;23;20031;-76
2021/09/12 01:40:01;;;;;;;3.10;1.70;;;16.50;99.90;;;;;;6037158;23;20019;-77
2021/09/12 01:42:28;;;;;;;3.50;1.75;;;16.50;99.90;;;;;;6036239;23;20046;-77
2021/09/12 01:44:56;;;;;;;3.88;1.90;;;16.50;99.90;;;;;;6037223;23;20027;-77
2021/09/12 01:47:23;;;;;;;3.00;1.65;;;16.50;99.90;;;;;;6035851;23;20047;-77
2021/09/12 01:49:50;;;;;;;2.80;1.52;;;16.50;99.90;;;;;;6037281;23;20030;-77
2021/09/12 01:52:17;;;;;;;5.07;1.92;;;16.50;99.90;;;;;;6036120;23;20020;-77
2021/09/12 01:54:44;;;;;;;3.08;1.90;;;16.50;99.90;;;;;;6036961;23;20087;-76
2021/09/12 01:57:11;;;;;;;3.33;1.70;;;16.50;99.90;;;;;;6036236;23;20038;-77
2021/09/12 01:59:38;;;;;;;4.82;1.70;;;16.50;99.90;;;;;;6036797;23;20023;-77
2021/09/12 02:02:05;;;;;;;4.85;2.13;;;16.50;99.90;;;;;;6036339;23;20016;-77
2021/09/12 02:04:32;;;;;;;3.85;1.98;;;16.50;99.90;;;;;;6037180;23;20094;-77
2021/09/12 02:06:59;;;;;;;3.00;1.75;;;16.50;99.90;;;;;;6036885;23;20035;-77
2021/09/12 02:09:27;;;;;;;5.25;2.10;;;16.40;99.90;;;;;;6036511;23;20023;-75
2021/09/12 02:11:54;;;;;;;3.05;1.83;;;16.40;99.90;;;;;;6037030;23;20122;-75
2021/09/12 02:14:21;;;;;;;3.28;1.70;;;16.40;99.90;;;;;;6036127;23;20478;-74
2021/09/12 02:16:49;;;;;;;5.88;1.92;;;16.40;99.90;;;;;;6037038;23;20030;-75
2021/09/12 02:19:16;;;;;;;4.90;1.80;;;16.40;99.90;;;;;;6036160;23;20020;-75
2021/09/12 02:21:44;;;;;;;3.85;1.83;;;16.40;99.90;;;;;;6036859;23;20030;-75
2021/09/12 02:24:11;;;;;;;5.80;1.65;;;16.40;99.90;;;;;;6036154;23;20020;-75
2021/09/12 02:26:38;;;;;;;4.88;1.70;;;16.40;99.90;;;;;;6036736;23;20071;-75
2021/09/12 02:29:05;;;;;;;5.05;1.83;;;16.40;99.90;;;;;;6036393;23;20027;-75
2021/09/12 02:31:32;;;;;;;3.88;1.88;;;16.40;99.90;;;;;;6036889;23;20027;-75
2021/09/12 02:33:59;;;;;;;2.75;1.88;;;16.40;99.90;;;;;;6036716;23;20023;-75
2021/09/12 02:36:26;;;;;;;3.03;1.80;;;16.40;99.90;;;;;;6035925;23;20464;-75
2021/09/12 02:38:53;;;;;;;3.95;2.22;;;16.40;99.90;;;;;;6036751;23;20020;-75
2021/09/12 02:41:20;;;;;;;4.65;2.28;;;16.40;99.90;;;;;;6036118;23;20098;-75
2021/09/12 02:43:47;;;;;;;4.50;2.00;;;16.40;99.90;;;;;;6036864;23;20019;-75
2021/09/12 02:46:14;;;;;;;2.65;2.10;;;16.40;99.90;;;;;;6035943;23;20074;-76
2021/09/12 02:48:41;;;;;;;2.80;1.88;;;16.40;99.90;;;;;;6036699;23;20090;-75
2021/09/12 02:51:08;;;;;;;4.18;2.10;;;16.40;99.90;;;;;;6013009;23;20019;-75
2021/09/12 02:53:35;;;;;;;2.95;1.75;;;16.40;99.90;;;;;;6038651;23;20027;-75
2021/09/12 02:56:02;;;;;;;4.25;2.53;;;16.40;99.90;;;;;;6038486;23;20027;-76
2021/09/12 02:58:29;;;;;;;2.90;1.83;;;16.50;99.90;;;;;;6037781;23;20031;-75
2021/09/12 03:00:57;;;;;;;4.30;2.35;;;16.40;99.90;;;;;;6038285;23;20027;-75
2021/09/12 03:03:24;;;;;;;4.00;1.88;;;16.50;99.90;;;;;;6037691;23;20523;-75
2021/09/12 03:05:51;;;;;;;3.83;1.90;;;16.50;99.90;;;;;;6038515;23;20023;-75
2021/09/12 03:08:19;;;;;;;2.83;1.83;;;16.50;99.90;;;;;;6037521;23;20091;-75
2021/09/12 03:10:46;;;;;;;7.25;2.30;;;16.50;99.90;;;;;;6038533;23;20027;-75
2021/09/12 03:13:13;;;;;;;5.85;1.95;;;16.50;99.90;;;;;;6037148;23;20019;-75
2021/09/12 03:15:40;;;;;;;5.35;2.40;;;16.40;99.90;;;;;;6038019;23;20448;-75
2021/09/12 03:18:08;;;;;;;3.83;1.92;;;16.50;99.90;;;;;;6037381;23;20050;-75
2021/09/12 03:20:35;;;;;;;4.80;1.90;;;16.50;99.90;;;;;;6038016;23;20050;-75
2021/09/12 03:23:03;;;;;;;4.93;1.75;;;16.50;99.90;;;;;;6038513;23;20038;-75
2021/09/12 03:25:31;;;;;;;3.17;2.10;;;16.50;99.90;;;;;;6037369;23;20039;-76
2021/09/12 03:27:58;;;;;;;3.35;2.00;;;16.50;99.90;;;;;;6038085;23;20424;-75
2021/09/12 03:30:25;;;;;;;2.97;2.00;;;16.50;99.90;;;;;;6037170;23;20019;-75
2021/09/12 03:32:52;;;;;;;4.30;2.05;;;16.50;99.90;;;;;;6037987;23;20027;-76
2021/09/12 03:35:19;;;;;;;4.38;2.05;;;16.50;99.90;;;;;;6037503;23;20026;-75
2021/09/12 03:37:46;;;;;;;3.13;2.20;;;16.50;99.90;;;;;;6038140;23;20467;-75
2021/09/12 03:40:13;;;;;;;3.17;2.10;;;16.40;99.90;;;;;;6037128;23;20019;-75
2021/09/12 03:42:40;;;;;;;3.67;2.20;;;16.40;99.90;;;;;;6038372;23;20019;-75
2021/09/12 03:45:08;;;;;;;3.53;2.20;;;16.40;99.90;;;;;;6037187;23;20019;-75
2021/09/12 03:47:35;;;;;;;4.35;2.55;;;16.40;99.90;;;;;;6037987;23;20105;-75
2021/09/12 03:50:03;;;;;;;3.30;2.17;;;16.40;99.90;;;;;;6038279;23;20026;-75
2021/09/12 03:52:30;;;;;;;4.63;2.08;;;16.30;99.90;;;;;;6037408;23;20294;-75
2021/09/12 03:54:57;;;;;;;5.43;2.03;;;16.40;99.90;;;;;;6037875;23;20452;-75
2021/09/12 03:57:24;;;;;;;5.30;2.53;;;16.30;99.90;;;;;;6036949;23;20079;-75
2021/09/12 03:59:52;;;;;;;6.85;2.38;;;16.30;99.90;;;;;;6037908;23;20027;-75
2021/09/12 04:02:19;;;;;;;4.35;2.25;;;16.30;99.90;;;;;;6037060;23;20075;-74
2021/09/12 04:04:46;;;;;;;6.05;2.50;;;16.30;99.90;;;;;;6037990;23;20027;-75
2021/09/12 04:07:13;;;;;;;5.57;2.60;;;16.40;99.90;;;;;;6037001;23;20030;-75
2021/09/12 04:09:40;;;;;;;3.38;2.50;;;16.40;99.90;;;;;;6037536;23;20046;-75
2021/09/12 04:12:07;;;;;;;5.18;2.53;;;16.40;99.90;;;;;;6037117;23;20026;-75
2021/09/12 04:14:35;;;;;;;3.92;2.33;;;16.40;99.90;;;;;;6037862;23;20024;-75
2021/09/12 04:17:02;;;;;;;3.67;2.50;;;16.40;99.90;;;;;;6037855;23;20023;-75
2021/09/12 04:19:29;;;;;;;3.65;2.90;;;16.40;99.90;;;;;;6037318;23;20027;-75
2021/09/12 04:21:56;;;;;;;4.45;2.45;;;16.40;99.90;;;;;;6037852;23;20341;-75
2021/09/12 04:24:24;;;;;;;5.32;2.97;;;16.40;99.90;;;;;;6036879;23;20030;-75
2021/09/12 04:26:51;;;;;;;4.80;2.50;;;16.40;99.90;;;;;;6037481;23;20027;-75
2021/09/12 04:29:21;;;;;;;5.30;3.17;;;16.40;99.90;;;;;;6036602;23;20370;-76
2021/09/12 04:31:48;;;;;;;5.57;3.15;;;16.40;99.90;;;;;;6038996;23;20019;-75
2021/09/12 04:34:15;;;;;;;4.13;2.92;;;16.40;99.90;;;;;;6041726;23;20025;-75
2021/09/12 04:36:42;;;;;;;5.88;3.13;;;16.40;99.90;;;;;;6042266;23;20026;-75
2021/09/12 04:39:09;;;;;;;5.65;2.97;;;16.40;99.90;;;;;;6041503;23;20021;-75
2021/09/12 04:41:36;;;;;;;5.15;3.45;;;16.40;99.90;;;;;;6042185;23;20378;-75
2021/09/12 04:44:04;;;;;;;6.65;3.33;;;16.40;99.90;;;;;;6042366;23;20331;-75
2021/09/12 04:46:31;;;;;;;3.53;3.00;;;16.40;99.90;;;;;;6041771;23;20086;-75
2021/09/12 04:48:58;;;;;;;5.13;3.17;;;16.40;99.90;;;;;;6042401;23;20019;-75
2021/09/12 04:51:25;;;;;;;6.13;3.33;;;16.40;99.90;;;;;;6041731;23;20034;-76
2021/09/12 04:53:54;;;;;;;6.60;3.60;;;16.40;99.90;;;;;;6042345;23;20074;-76
2021/09/12 04:56:22;;;;;;;4.95;3.10;;;16.40;99.90;;;;;;6041564;23;20026;-75
2021/09/12 04:58:49;;;;;;;5.10;3.83;;;16.40;99.90;;;;;;6042512;23;20018;-75
2021/09/12 05:01:17;;;;;;;5.80;2.92;;;16.40;99.90;;;;;;6041286;23;20019;-75
2021/09/12 05:03:44;;;;;;;4.50;3.30;;;16.40;99.90;;;;;;6042362;23;20043;-75
2021/09/12 05:06:11;;;;;;;5.35;2.85;;;16.40;99.90;;;;;;6040983;23;20033;-75
2021/09/12 05:08:39;;;;;;;3.28;2.67;;;16.40;99.90;;;;;;6042504;23;20022;-75
2021/09/12 05:11:06;;;;;;;7.60;3.38;;;16.30;99.90;;;;;;6040877;23;20034;-76
2021/09/12 05:13:36;;;;;;;9.00;3.15;;;16.30;99.90;;;;;;6041946;23;20353;-75
2021/09/12 05:16:04;;;;;;;6.40;3.10;;;16.30;99.90;;;;;;6042355;23;20324;-75
2021/09/12 05:18:31;;;;;;;4.65;3.00;;;16.30;99.90;;;;;;6041743;23;20377;-75
2021/09/12 05:20:58;;;;;;;6.22;3.50;;;16.30;99.90;;;;;;6041901;23;20030;-75
2021/09/12 05:23:26;;;;;;;4.15;3.38;;;16.30;99.90;;;;;;6041367;23;20109;-75
2021/09/12 05:25:53;;;;;;;7.20;3.33;;;16.30;99.90;;;;;;6042374;23;20626;-75
2021/09/12 05:28:20;;;;;;;5.25;3.33;;;16.20;99.90;;;;;;6041219;23;20023;-75
2021/09/12 05:30:47;;;;;;;5.93;3.88;;;16.20;99.90;;;;;;6042100;23;20027;-75
2021/09/12 05:33:14;;;;;;;6.10;3.90;;;16.20;99.90;;;;;;6040855;23;20100;-76
2021/09/12 05:35:41;;;;;;;8.38;3.90;;;16.20;99.90;;;;;;6041933;23;20066;-75
2021/09/12 05:38:08;;;;;;;4.70;3.92;;;16.10;99.90;;;;;;6041245;23;20026;-76
2021/09/12 05:40:35;;;;;;;5.60;3.80;;;16.10;99.90;;;;;;6041964;23;20491;-75
2021/09/12 05:43:03;;;;;;;6.03;3.72;;;16.10;99.90;;;;;;6041920;23;20023;-75
2021/09/12 05:45:30;;;;;;;5.97;3.80;;;16.00;99.90;;;;;;6041081;23;20026;-75
2021/09/12 05:47:57;;;;;;;6.47;4.10;;;16.00;99.90;;;;;;6041839;23;20320;-75
2021/09/12 05:50:24;;;;;;;6.13;4.25;;;16.00;99.90;;;;;;6041038;23;20019;-75
2021/09/12 05:52:51;;;;;;;5.15;4.20;;;16.00;99.90;;;;;;6042144;23;20030;-75
2021/09/12 05:55:18;;;;;;;6.28;4.70;;;15.90;99.90;;;;;;6041230;23;20018;-75
2021/09/12 05:57:45;;;;;;;10.70;5.05;;;15.90;99.90;;;;;;6041766;23;20462;-75
2021/09/12 06:00:12;;;;;;;9.38;5.10;;;15.90;99.90;;;;;;6041201;23;20030;-75
2021/09/12 06:02:39;;;;;;;5.47;4.78;;;15.90;99.90;;;;;;6042119;23;20023;-75
2021/09/12 06:05:08;;;;;;;6.82;5.10;;;15.90;99.90;;;;;;6041453;23;20102;-75
2021/09/12 06:07:34;;;;;;;8.73;4.68;;;15.80;99.90;;;;;;6041861;23;20030;-75
2021/09/12 06:10:02;;;;;;;9.70;4.20;;;15.90;99.90;;;;;;6042082;23;20015;-75
2021/09/12 06:12:29;;;;;;;9.07;4.47;;;15.90;99.90;;;;;;6041170;23;20042;-75
2021/09/12 06:14:56;;;;;;;6.72;4.72;;;15.90;99.90;;;;;;6041945;23;20019;-75
2021/09/12 06:17:22;;;;;;;6.18;5.00;;;15.80;99.90;;;;;;6041275;23;20018;-75
2021/09/12 06:19:49;;;;;;;10.80;5.70;;;15.80;99.90;;;;;;6041921;23;20019;-75
2021/09/12 06:22:17;;;;;;;7.55;4.75;;;15.80;99.90;;;;;;6041020;23;20022;-75
2021/09/12 06:24:44;;;;;;;7.28;5.30;;;15.80;99.90;;;;;;6041869;23;20023;-75
2021/09/12 06:27:11;;;;;;;8.45;5.72;;;15.80;99.90;;;;;;6042563;23;20015;-75
2021/09/12 06:29:39;;;;;;;9.98;5.22;;;15.80;99.90;;;;;;6020206;23;20030;-75
2021/09/12 06:32:06;;;;;;;7.63;5.00;;;15.80;99.90;;;;;;6042705;23;20336;-75
2021/09/12 06:41:02;;;;;;;6.65;5.47;;;15.80;99.90;;;;;;6070642;23;20464;-75
2021/09/12 06:43:30;;;;;;;9.73;5.90;;;15.80;99.90;;;;;;6070839;23;20041;-75
2021/09/12 06:45:57;;;;;;;8.48;6.15;;;15.90;99.90;;;;;;6069366;23;20335;-75
2021/09/12 06:48:24;;;;;;;8.52;6.03;;;15.90;99.90;;;;;;6068524;23;20090;-75
2021/09/12 06:50:53;;;;;;;11.63;5.70;;;16.00;99.90;;;;;;6069186;23;20301;-74
2021/09/12 06:53:20;;;;;;;6.60;5.13;;;16.00;99.90;;;;;;6068651;23;20023;-75
2021/09/12 06:55:47;;;;;;;7.00;5.85;;;16.00;99.90;;;;;;6069882;23;20033;-75
2021/09/12 06:58:16;;;;;;;7.25;5.75;;;16.10;99.90;;;;;;6068636;23;20026;-75
2021/09/12 07:00:43;;;;;;;8.25;6.03;;;16.10;99.90;;;;;;6069344;23;20089;-75
2021/09/12 07:03:10;;;;;;;6.78;5.28;;;16.10;99.90;;;;;;6068427;23;20053;-74
2021/09/12 07:05:37;;;;;;;7.85;6.00;;;16.20;99.90;;;;;;6069295;23;20459;-74
2021/09/12 07:08:08;;;;;;;8.68;6.20;;;16.20;99.90;;;;;;6069312;23;20018;-75
2021/09/12 07:10:35;;;;;;;10.35;5.65;;;16.20;99.90;;;;;;6069552;23;20022;-75
2021/09/12 07:13:02;;;;;;;8.82;6.00;;;16.30;99.90;;;;;;6069165;23;20022;-74
2021/09/12 07:15:29;;;;;;;11.05;6.03;;;16.30;99.90;;;;;;6064674;23;20030;-75
2021/09/12 07:17:56;;;;;;;8.18;5.95;;;16.40;99.90;;;;;;6069274;23;20018;-75
2021/09/12 07:20:23;;;;;;;6.60;4.95;;;16.40;99.90;;;;;;6068583;23;20022;-75
2021/09/12 07:22:50;;;;;;;6.60;5.07;;;16.50;99.90;;;;;;6069666;23;20026;-75
2021/09/12 07:25:19;;;;;;;7.07;5.07;;;16.60;99.90;;;;;;6068595;23;20055;-75
2021/09/12 07:27:46;;;;;;;6.32;4.95;;;16.70;99.90;;;;;;6069217;23;20098;-74
2021/09/12 07:30:14;;;;;;;7.45;4.90;;;16.80;99.90;;;;;;6068000;23;20019;-74
2021/09/12 07:32:42;;;;;;;4.75;3.72;;;17.00;99.90;;;;;;6069345;23;20022;-75
2021/09/12 07:35:09;;;;;;;5.60;4.07;;;17.10;99.90;;;;;;6067981;23;20093;-75
2021/09/12 07:37:36;;;;;;;6.15;4.20;;;17.20;99.90;;;;;;6069221;23;20315;-75
2021/09/12 07:40:04;;;;;;;4.88;4.32;;;17.40;99.90;;;;;;6069023;23;20029;-74
2021/09/12 07:42:31;;;;;;;6.40;4.07;;;17.50;99.90;;;;;;6068160;23;20026;-75
2021/09/12 07:44:57;;;;;;;6.13;4.22;;;17.60;99.90;;;;;;6068680;23;20022;-75
2021/09/12 07:47:24;;;;;;;5.85;3.78;;;17.70;99.90;;;;;;6068062;23;20090;-75
2021/09/12 07:49:51;;;;;;;7.95;4.22;;;17.80;99.90;;;;;;6069143;23;20029;-75
2021/09/12 07:52:18;;;;;;;6.57;3.95;;;17.80;99.90;;;;;;6068112;23;20022;-75
2021/09/12 07:54:45;;;;;;;4.40;3.72;;;18.00;99.90;;;;;;6068448;23;20069;-76
2021/09/12 07:57:12;;;;;;;6.35;3.97;;;18.10;99.90;;;;;;6055661;23;20022;-75
2021/09/12 07:59:39;;;;;;;7.72;4.18;;;18.20;99.90;;;;;;6068923;23;20089;-74
2021/09/12 08:02:06;;;;;;;5.68;3.42;;;18.30;99.90;;;;;;6068380;23;20054;-74
2021/09/12 08:04:34;;;;;;;4.40;3.22;;;18.40;99.90;;;;;;6068974;23;20027;-75
2021/09/12 08:07:00;;;;;;;5.18;3.15;;;18.60;99.90;;;;;;6068934;23;20023;-74
2021/09/12 08:09:28;;;;;;;4.50;3.20;;;18.60;99.90;;;;;;6067769;23;20028;-74
2021/09/12 08:11:55;;;;;;;5.18;2.92;;;18.70;99.90;;;;;;6068494;23;20048;-74
2021/09/12 08:14:22;;;;;;;5.68;3.22;;;18.80;99.90;;;;;;6067701;23;20022;-74
2021/09/12 08:16:49;;;;;;;4.60;3.65;;;18.90;99.90;;;;;;6068971;23;20093;-74
2021/09/12 08:19:16;;;;;;;3.78;3.05;;;19.00;99.90;;;;;;6067817;23;20026;-75
2021/09/12 08:21:44;;;;;;;3.65;2.90;;;19.00;99.90;;;;;;6069038;23;20105;-75
2021/09/12 08:24:11;;;;;;;3.92;3.33;;;19.10;99.90;;;;;;6068145;23;20526;-74
2021/09/12 08:26:39;;;;;;;5.22;3.05;;;19.30;99.90;;;;;;6068321;23;20029;-74
2021/09/12 08:29:06;;;;;;;8.40;3.17;;;19.30;99.90;;;;;;6067628;23;20451;-74
2021/09/12 08:31:33;;;;;;;6.30;2.55;;;19.50;99.90;;;;;;6068894;23;20042;-75
2021/09/12 08:34:00;;;;;;;4.30;2.90;;;19.60;99.90;;;;;;6069821;23;20022;-75
2021/09/12 08:36:27;;;;;;;5.93;2.72;;;19.70;99.90;;;;;;6070251;23;20041;-75
2021/09/12 08:38:55;;;;;;;3.53;2.30;;;19.80;99.90;;;;;;6071257;23;20018;-75
2021/09/12 08:41:22;;;;;;;4.20;2.78;;;19.90;99.90;;;;;;6070193;23;20022;-75
2021/09/12 08:43:50;;;;;;;4.15;3.08;;;20.00;99.90;;;;;;6071350;23;20018;-75
2021/09/12 08:46:18;;;;;;;4.15;2.80;;;19.90;99.90;;;;;;6070340;23;20076;-75
2021/09/12 08:48:46;;;;;;;5.60;2.80;;;19.90;99.90;;;;;;6070684;23;20431;-75
2021/09/12 08:51:13;;;;;;;4.28;2.70;;;19.90;99.90;;;;;;6070374;23;20023;-75
2021/09/12 08:53:40;;;;;;;3.75;2.50;;;19.90;99.90;;;;;;6070622;23;20028;-75
2021/09/12 08:56:08;;;;;;;3.42;2.65;;;20.00;99.90;;;;;;6070454;23;20018;-75
2021/09/12 08:58:34;;;;;;;3.10;2.30;;;20.10;99.90;;;;;;6071070;23;20029;-75
2021/09/12 09:01:02;;;;;;;4.70;2.10;;;20.20;99.90;;;;;;6070972;23;20022;-75
2021/09/12 09:03:38;;;;;;;4.35;2.17;;;20.30;99.90;;;;;;6069949;23;20046;-75
2021/09/12 09:06:19;;;;;;;3.42;2.10;;;20.40;99.90;;;;;;6070043;23;20030;-75
2021/09/12 09:08:56;;;;;;;3.38;2.42;;;20.40;99.90;;;;;;6066455;23;20022;-75
2021/09/12 09:11:41;;;;;;;2.08;1.83;;;20.40;99.90;;;;;;6069541;23;20323;-75
2021/09/12 09:14:12;;;;;;;3.25;2.00;;;20.50;99.90;;;;;;6069859;23;20022;-75
2021/09/12 09:16:40;;;;;;;3.90;1.75;;;20.50;99.90;;;;;;6070996;23;20030;-75
2021/09/12 09:19:08;;;;;;;2.80;1.52;;;20.70;99.90;;;;;;6070019;23;20018;-76
2021/09/12 09:21:44;;;;;;;2.95;1.75;;;20.70;99.90;;;;;;6070589;23;20023;-76
2021/09/12 09:24:25;;;;;;;2.60;1.98;;;20.80;99.90;;;;;;6069917;23;20022;-75
2021/09/12 09:26:53;;;;;;;3.90;2.42;;;20.90;99.90;;;;;;6070771;23;20022;-75
2021/09/12 09:29:34;;;;;;;5.03;2.33;;;21.00;99.90;;;;;;6069814;23;20023;-75
2021/09/12 09:32:10;;;;;;;4.38;2.30;;;21.10;99.90;;;;;;6070804;23;20453;-75
2021/09/12 09:34:41;;;;;;;5.22;2.30;;;21.00;99.90;;;;;;6099161;23;20081;-76
2021/09/12 09:37:12;;;;;;;3.15;2.20;;;21.00;99.90;;;;;;6098679;23;20076;-76
2021/09/12 09:39:44;;;;;;;4.07;2.67;;;21.00;99.90;;;;;;6099160;23;20023;-76
2021/09/12 09:42:36;;;;;;;2.90;2.40;;;21.00;99.90;;;;;;6112796;23;20391;-75
2021/09/12 09:45:05;;;;;;;4.72;2.25;;;21.10;99.90;;;;;;6123625;23;20022;-75
2021/09/12 09:47:32;;;;;;;;;;;21.10;99.90;;;;;;6123213;23;20028;-75
2021/09/12 09:50:08;;;;;;;6.05;2.13;;;21.10;99.90;;;;;;6124097;23;20202;-74
2021/09/12 09:52:36;;;;;;;4.13;1.80;;;21.20;99.90;;;;;;6123610;23;20045;-74
2021/09/12 09:55:07;;;;;;;2.45;1.58;;;21.30;99.90;;;;;;6103051;23;20025;-78
2021/09/12 09:57:46;;;;;;;4.10;1.60;;;21.40;99.90;;;;;;6144730;23;20024;-77
2021/09/12 10:00:26;;;;;;;3.67;1.83;;;21.50;99.90;;;;;;6110810;23;20049;-77
2021/09/12 10:03:17;;;;;;;4.90;1.30;;;21.70;99.90;;;;;;6002704;23;20693;-77
2021/09/12 10:06:27;;;;;;;3.70;1.40;;;21.80;99.90;;;;;;6031376;23;20068;-78
2021/09/12 10:10:22;;;;;;;;;;;;;;;;;;;;;
2021/09/12 10:28:11;;;;;;;3.80;1.15;;;22.30;99.90;;;;;;5044645;28;20454;-78
2021/09/12 10:30:46;;;;;;;2.42;1.15;;;23.10;99.90;;;;;;5026642;28;20472;-78
2021/09/12 10:33:34;;;;;;;2.75;1.20;;;23.20;99.90;;;;;;5021109;28;20044;-78
2021/09/12 10:36:25;;;;;;;2.38;1.23;;;23.30;99.90;;;;;;5006426;28;20050;-78
2021/09/12 10:39:22;;;;;;;4.07;1.00;;;23.50;99.90;;;;;;5021948;28;20049;-78
2021/09/12 10:42:11;;;;;;;1.65;1.17;;;23.60;99.90;;;;;;5015220;28;20064;-78
2021/09/12 10:45:23;;;;;;;2.13;1.23;;;23.70;99.90;;;;;;4991605;28;20124;-78
2021/09/12 10:51:45;;;;;;;3.70;1.33;;;23.80;99.90;;;;;;5014405;28;20041;-78
2021/09/12 10:55:35;;;;;;;3.22;0.95;;;23.90;99.90;;;;;;5001292;28;20096;-78
2021/09/12 10:58:17;;;;;;;2.60;1.02;;;24.00;99.90;;;;;;4892825;28;20058;-78
2021/09/12 11:01:41;;;;;;;2.42;1.13;;;24.10;99.90;;;;;;4878515;29;20616;-78
2021/09/12 11:04:33;;;;;;;3.63;1.08;;;24.20;99.90;;;;;;4884538;29;20084;-78
2021/09/12 11:07:57;;;;;;;4.20;1.20;;;24.30;99.90;;;;;;4839985;29;20424;-79
2021/09/12 11:24:35;;;;;;;1.80;1.27;;;24.10;99.90;;;;;;5028846;28;20837;-77
2021/09/12 11:27:04;;;;;;;3.28;1.08;;;24.10;99.90;;;;;;4999399;28;20066;-77
2021/09/12 11:29:35;;;;;;;4.22;1.40;;;24.10;99.90;;;;;;5003222;28;20049;-77
2021/09/12 11:32:06;;;;;;;1.63;1.10;;;24.00;99.90;;;;;;5033041;28;20054;-75
2021/09/12 11:34:34;;;;;;;1.73;1.05;;;23.90;99.90;;;;;;4976428;28;20077;-75
2021/09/12 11:37:10;;;;;;;2.67;1.02;;;23.90;99.90;;;;;;5008548;28;20101;-75
2021/09/12 11:39:41;;;;;;;1.52;0.80;;;23.90;99.90;;;;;;4992281;28;20047;-76
2021/09/12 11:42:10;;;;;;;2.78;0.98;;;24.00;99.90;;;;;;5005184;28;20495;-76
2021/09/12 11:44:42;;;;;;;3.85;0.85;;;24.10;99.90;;;;;;5021342;28;20052;-76
2021/09/12 11:47:13;;;;;;;3.53;1.02;;;24.20;99.90;;;;;;5011775;28;20054;-77
2021/09/12 11:49:41;;;;;;;1.95;1.10;;;24.40;99.90;;;;;;4983265;28;20061;-76
2021/09/12 11:52:08;;;;;;;3.25;1.00;;;24.50;99.90;;;;;;4998920;28;20050;-76
2021/09/12 11:54:37;;;;;;;2.13;1.05;;;24.50;99.90;;;;;;5004788;28;20051;-76
2021/09/12 11:57:11;;;;;;;2.50;1.00;;;24.40;99.90;;;;;;4983984;28;20046;-76
2021/09/12 11:59:46;;;;;;;3.60;1.42;;;24.40;99.90;;;;;;4974059;28;20377;-76
2021/09/12 12:02:22;;;;;;;2.17;1.10;;;24.40;99.90;;;;;;5039762;28;20485;-76
2021/09/12 12:04:51;;;;;;;2.75;1.13;;;24.40;99.90;;;;;;4998207;28;20518;-77
2021/09/12 12:07:19;;;;;;;2.25;0.82;;;24.40;99.90;;;;;;5000711;28;20130;-76
2021/09/12 12:09:48;;;;;;;1.83;0.90;;;24.40;99.90;;;;;;5002302;28;20043;-76
2021/09/12 12:12:17;;;;;;;1.50;0.80;;;24.50;99.90;;;;;;5001772;28;20047;-76
2021/09/12 12:14:51;;;;;;;1.58;1.10;;;24.60;99.90;;;;;;5004104;28;20043;-76
2021/09/12 12:17:23;;;;;;;1.35;0.90;;;24.70;99.90;;;;;;4989700;28;20452;-76
2021/09/12 12:19:55;;;;;;;1.75;0.80;;;24.80;99.90;;;;;;5015838;28;20050;-76
2021/09/12 12:22:24;;;;;;;2.63;0.90;;;24.80;99.90;;;;;;4975081;28;20046;-76
2021/09/12 12:24:54;;;;;;;1.95;1.10;;;24.80;99.90;;;;;;5009507;28;20085;-75
2021/09/12 12:27:24;;;;;;;2.47;1.00;;;24.80;99.90;;;;;;5015806;28;20478;-76
2021/09/12 12:29:59;;;;;;;1.00;0.90;;;24.80;99.90;;;;;;4967011;28;20131;-75
2021/09/12 12:32:28;;;;;;;2.78;1.23;;;24.90;99.90;;;;;;5007166;28;20047;-75
2021/09/12 12:34:57;;;;;;;2.47;0.90;;;24.90;99.90;;;;;;5016864;28;20054;-75
2021/09/12 12:37:33;;;;;;;2.90;0.90;;;25.00;99.90;;;;;;4968625;28;20058;-76
2021/09/12 12:40:05;;;;;;;1.60;0.90;;;25.00;99.90;;;;;;4994766;28;20070;-75
2021/09/12 12:42:39;;;;;;;3.25;0.90;;;25.10;99.90;;;;;;4983444;28;20507;-75
2021/09/12 12:45:20;;;;;;;1.50;0.90;;;25.20;99.90;;;;;;4994853;28;20129;-76
2021/09/12 12:47:48;;;;;;;3.17;0.90;;;25.20;99.90;;;;;;5010097;28;20438;-76
2021/09/12 12:50:34;;;;;;;1.00;0.85;;;25.20;99.90;;;;;;4967811;28;20388;-76
2021/09/12 12:53:19;;;;;;;2.95;1.05;;;25.30;99.90;;;;;;5001837;28;20043;-76
2021/09/12 12:55:53;;;;;;;1.33;0.90;;;25.50;99.90;;;;;;5011198;28;20042;-76
2021/09/12 12:58:20;;;;;;;1.40;0.75;;;25.50;99.90;;;;;;5003910;28;20057;-76
2021/09/12 13:00:49;;;;;;;3.08;1.05;;;25.50;99.90;;;;;;4967141;28;20047;-77
2021/09/12 13:03:17;;;;;;;2.50;0.90;;;25.60;99.90;;;;;;4968696;28;20047;-77
2021/09/12 13:05:46;;;;;;;3.33;0.88;;;25.70;99.90;;;;;;4995654;28;20455;-76
2021/09/12 13:08:18;;;;;;;2.47;0.90;;;25.70;99.90;;;;;;4965878;28;20066;-76
2021/09/12 13:10:48;;;;;;;1.60;0.80;;;25.80;99.90;;;;;;5013557;28;20100;-76
2021/09/12 13:13:17;;;;;;;2.65;0.85;;;25.70;99.90;;;;;;4968423;28;20042;-77
2021/09/12 13:15:45;;;;;;;1.70;0.90;;;25.70;99.90;;;;;;5006453;28;20050;-76
2021/09/12 13:18:13;;;;;;;2.60;0.93;;;25.70;99.90;;;;;;4967793;28;20058;-76
2021/09/12 13:20:41;;;;;;;1.77;0.90;;;25.70;99.90;;;;;;4966236;28;20046;-76
2021/09/12 13:23:21;;;;;;;1.90;1.00;;;25.70;99.90;;;;;;4964550;28;20399;-78
2021/09/12 13:25:51;;;;;;;1.38;1.02;;;25.70;99.90;;;;;;4990204;28;20094;-76
2021/09/12 13:28:18;;;;;;;3.17;1.00;;;25.70;99.90;;;;;;5009321;28;20125;-76
2021/09/12 13:30:45;;;;;;;4.63;1.00;;;25.70;99.90;;;;;;4970761;28;20047;-76
2021/09/12 13:33:12;;;;;;;3.30;1.00;;;25.60;99.90;;;;;;5005352;28;20050;-76
2021/09/12 13:35:39;;;;;;;1.30;0.80;;;25.50;99.90;;;;;;4972576;28;20073;-76
2021/09/12 13:38:06;;;;;;;1.58;0.85;;;25.40;99.90;;;;;;5009970;28;20086;-77
2021/09/12 13:40:34;;;;;;;2.70;0.88;;;25.20;99.90;;;;;;5010123;28;20054;-76
2021/09/12 13:43:01;;;;;;;1.60;0.90;;;25.20;99.90;;;;;;4974557;28;20046;-76